sensor_id;sensor_type;location;lat;lon;timestamp;P1;durP1;ratioP1;P2;durP2;ratioP2
2762;SDS011;1389;51.490;7.338;2024-03-08T00:01:31;1999.90;;;999.90;;
2762;SDS011;1389;51.490;7.338;2024-03-08T00:03:57;1999.90;;;999.90;;
2762;SDS011;1389;51.490;7.338;2024-03-08T00:06:24;1999.90;;;999.90;;
2762;SDS011;1389;51.490;7.338;2024-03-08T00:08:50;1999.90;;;999.90;;
2762;SDS011;1389;51.490;7.338;2024-03-08T00:11:17;1999.90;;;999.90;;
2762;SDS011;1389;51.490;7.338;2024-03-08T00:13:43;1999.90;;;999.90;;
2762;SDS011;1389;51.490;7.338;2024-03-08T00:16:10;1999.90;;;999.90;;
2762;SDS011;1389;51.490;7.338;2024-03-08T00:18:37;1999.90;;;999.90;;
2762;SDS011;1389;51.490;7.338;2024-03-08T00:21:04;1999.90;;;999.90;;
2762;SDS011;1389;51.490;7.338;2024-03-08T00:23:30;1999.90;;;999.90;;
2762;SDS011;1389;51.490;7.338;2024-03-08T00:25:58;1999.90;;;999.90;;
2762;SDS011;1389;51.490;7.338;2024-03-08T00:28:25;1999.90;;;999.90;;
2762;SDS011;1389;51.490;7.338;2024-03-08T00:30:52;1999.90;;;999.90;;
2762;SDS011;1389;51.490;7.338;2024-03-08T00:33:19;1999.90;;;999.90;;
2762;SDS011;1389;51.490;7.338;2024-03-08T00:35:45;1999.90;;;999.90;;
2762;SDS011;1389;51.490;7.338;2024-03-08T00:38:13;1999.90;;;999.90;;
2762;SDS011;1389;51.490;7.338;2024-03-08T00:40:39;1999.90;;;999.90;;
2762;SDS011;1389;51.490;7.338;2024-03-08T00:43:06;1999.90;;;999.90;;
2762;SDS011;1389;51.490;7.338;2024-03-08T00:45:32;1999.90;;;999.90;;
2762;SDS011;1389;51.490;7.338;2024-03-08T00:47:58;1999.90;;;999.90;;
2762;SDS011;1389;51.490;7.338;2024-03-08T00:50:25;1999.90;;;999.90;;
2762;SDS011;1389;51.490;7.338;2024-03-08T00:52:52;1999.90;;;999.90;;
2762;SDS011;1389;51.490;7.338;2024-03-08T00:55:18;1999.90;;;999.90;;
2762;SDS011;1389;51.490;7.338;2024-03-08T00:57:45;1999.90;;;999.90;;
2762;SDS011;1389;51.490;7.338;2024-03-08T01:00:12;1999.90;;;999.90;;
2762;SDS011;1389;51.490;7.338;2024-03-08T01:02:39;1999.90;;;999.90;;
2762;SDS011;1389;51.490;7.338;2024-03-08T01:05:05;1999.90;;;999.90;;
2762;SDS011;1389;51.490;7.338;2024-03-08T01:07:35;1999.90;;;999.90;;
2762;SDS011;1389;51.490;7.338;2024-03-08T01:10:02;1999.90;;;999.90;;
2762;SDS011;1389;51.490;7.338;2024-03-08T01:12:29;1999.90;;;999.90;;
2762;SDS011;1389;51.490;7.338;2024-03-08T01:14:55;1999.90;;;999.90;;
2762;SDS011;1389;51.490;7.338;2024-03-08T01:17:23;1999.90;;;999.90;;
2762;SDS011;1389;51.490;7.338;2024-03-08T01:19:50;1999.90;;;999.90;;
2762;SDS011;1389;51.490;7.338;2024-03-08T01:22:16;1999.90;;;999.90;;
2762;SDS011;1389;51.490;7.338;2024-03-08T01:24:43;1999.90;;;999.90;;
2762;SDS011;1389;51.490;7.338;2024-03-08T01:27:09;1999.90;;;999.90;;
2762;SDS011;1389;51.490;7.338;2024-03-08T01:29:36;1999.90;;;999.90;;
2762;SDS011;1389;51.490;7.338;2024-03-08T01:32:03;1999.90;;;999.90;;
2762;SDS011;1389;51.490;7.338;2024-03-08T01:34:29;1999.90;;;999.90;;
2762;SDS011;1389;51.490;7.338;2024-03-08T01:36:55;1999.90;;;999.90;;
2762;SDS011;1389;51.490;7.338;2024-03-08T01:39:22;1999.90;;;999.90;;
2762;SDS011;1389;51.490;7.338;2024-03-08T01:41:49;1999.90;;;999.90;;
2762;SDS011;1389;51.490;7.338;2024-03-08T01:44:15;1999.90;;;999.90;;
2762;SDS011;1389;51.490;7.338;2024-03-08T01:46:46;1999.90;;;999.90;;
2762;SDS011;1389;51.490;7.338;2024-03-08T01:49:13;1999.90;;;999.90;;
2762;SDS011;1389;51.490;7.338;2024-03-08T01:51:40;1999.90;;;999.90;;
2762;SDS011;1389;51.490;7.338;2024-03-08T01:54:07;1999.90;;;999.90;;
2762;SDS011;1389;51.490;7.338;2024-03-08T01:56:35;1999.90;;;999.90;;
2762;SDS011;1389;51.490;7.338;2024-03-08T01:59:02;1999.90;;;999.90;;
2762;SDS011;1389;51.490;7.338;2024-03-08T02:01:29;1999.90;;;999.90;;
2762;SDS011;1389;51.490;7.338;2024-03-08T02:03:56;1999.90;;;999.90;;
2762;SDS011;1389;51.490;7.338;2024-03-08T02:06:22;1999.90;;;999.90;;
2762;SDS011;1389;51.490;7.338;2024-03-08T02:08:49;1999.90;;;999.90;;
2762;SDS011;1389;51.490;7.338;2024-03-08T02:11:15;1999.90;;;999.90;;
2762;SDS011;1389;51.490;7.338;2024-03-08T02:13:41;1999.90;;;999.90;;
2762;SDS011;1389;51.490;7.338;2024-03-08T02:16:08;1999.90;;;999.90;;
2762;SDS011;1389;51.490;7.338;2024-03-08T02:18:35;1999.90;;;999.90;;
2762;SDS011;1389;51.490;7.338;2024-03-08T02:21:02;1999.90;;;999.90;;
2762;SDS011;1389;51.490;7.338;2024-03-08T02:23:28;1999.90;;;999.90;;
2762;SDS011;1389;51.490;7.338;2024-03-08T02:25:55;1999.90;;;999.90;;
2762;SDS011;1389;51.490;7.338;2024-03-08T02:28:22;1999.90;;;999.90;;
2762;SDS011;1389;51.490;7.338;2024-03-08T02:30:49;1999.90;;;999.90;;
2762;SDS011;1389;51.490;7.338;2024-03-08T02:33:22;1999.90;;;999.90;;
2762;SDS011;1389;51.490;7.338;2024-03-08T02:35:49;1999.90;;;999.90;;
2762;SDS011;1389;51.490;7.338;2024-03-08T02:38:17;1999.90;;;999.90;;
2762;SDS011;1389;51.490;7.338;2024-03-08T02:40:44;1999.90;;;999.90;;
2762;SDS011;1389;51.490;7.338;2024-03-08T02:43:11;1999.90;;;999.90;;
2762;SDS011;1389;51.490;7.338;2024-03-08T02:45:38;1999.90;;;999.90;;
2762;SDS011;1389;51.490;7.338;2024-03-08T02:48:05;1999.90;;;999.90;;
2762;SDS011;1389;51.490;7.338;2024-03-08T02:50:34;1999.90;;;999.90;;
2762;SDS011;1389;51.490;7.338;2024-03-08T02:53:01;1999.90;;;999.90;;
2762;SDS011;1389;51.490;7.338;2024-03-08T02:55:28;1999.90;;;999.90;;
2762;SDS011;1389;51.490;7.338;2024-03-08T02:57:54;1999.90;;;999.90;;
2762;SDS011;1389;51.490;7.338;2024-03-08T03:00:21;1999.90;;;999.90;;
2762;SDS011;1389;51.490;7.338;2024-03-08T03:02:51;1999.90;;;999.90;;
2762;SDS011;1389;51.490;7.338;2024-03-08T03:05:22;1999.90;;;999.90;;
2762;SDS011;1389;51.490;7.338;2024-03-08T03:07:49;1999.90;;;999.90;;
2762;SDS011;1389;51.490;7.338;2024-03-08T03:10:16;1999.90;;;999.90;;
2762;SDS011;1389;51.490;7.338;2024-03-08T03:12:43;1999.90;;;999.90;;
2762;SDS011;1389;51.490;7.338;2024-03-08T03:15:10;1999.90;;;999.90;;
2762;SDS011;1389;51.490;7.338;2024-03-08T03:17:37;1999.90;;;999.90;;
2762;SDS011;1389;51.490;7.338;2024-03-08T03:20:04;1999.90;;;999.90;;
2762;SDS011;1389;51.490;7.338;2024-03-08T03:22:36;1999.90;;;999.90;;
2762;SDS011;1389;51.490;7.338;2024-03-08T03:25:03;1999.90;;;999.90;;
2762;SDS011;1389;51.490;7.338;2024-03-08T03:27:32;1999.90;;;999.90;;
2762;SDS011;1389;51.490;7.338;2024-03-08T03:29:58;1999.90;;;999.90;;
2762;SDS011;1389;51.490;7.338;2024-03-08T03:32:45;1999.90;;;999.90;;
2762;SDS011;1389;51.490;7.338;2024-03-08T03:35:13;1999.90;;;999.90;;
2762;SDS011;1389;51.490;7.338;2024-03-08T03:37:40;1999.90;;;999.90;;
2762;SDS011;1389;51.490;7.338;2024-03-08T03:40:08;1999.90;;;999.90;;
2762;SDS011;1389;51.490;7.338;2024-03-08T03:42:35;1999.90;;;999.90;;
2762;SDS011;1389;51.490;7.338;2024-03-08T03:45:05;1999.90;;;999.90;;
2762;SDS011;1389;51.490;7.338;2024-03-08T03:47:31;1999.90;;;999.90;;
2762;SDS011;1389;51.490;7.338;2024-03-08T03:49:58;1999.90;;;999.90;;
2762;SDS011;1389;51.490;7.338;2024-03-08T03:52:27;1999.90;;;999.90;;
2762;SDS011;1389;51.490;7.338;2024-03-08T03:54:53;1999.90;;;999.90;;
2762;SDS011;1389;51.490;7.338;2024-03-08T03:57:20;1999.90;;;999.90;;
2762;SDS011;1389;51.490;7.338;2024-03-08T03:59:48;1999.90;;;999.90;;
2762;SDS011;1389;51.490;7.338;2024-03-08T04:02:16;1999.90;;;999.90;;
2762;SDS011;1389;51.490;7.338;2024-03-08T04:04:46;1999.90;;;999.90;;
2762;SDS011;1389;51.490;7.338;2024-03-08T04:07:13;1999.90;;;999.90;;
2762;SDS011;1389;51.490;7.338;2024-03-08T04:09:39;1999.90;;;999.90;;
2762;SDS011;1389;51.490;7.338;2024-03-08T04:12:08;1999.90;;;999.90;;
2762;SDS011;1389;51.490;7.338;2024-03-08T04:14:35;1999.90;;;999.90;;
2762;SDS011;1389;51.490;7.338;2024-03-08T04:17:02;1999.90;;;999.90;;
2762;SDS011;1389;51.490;7.338;2024-03-08T04:19:28;1999.90;;;999.90;;
2762;SDS011;1389;51.490;7.338;2024-03-08T04:21:55;1999.90;;;999.90;;
2762;SDS011;1389;51.490;7.338;2024-03-08T04:24:21;1999.90;;;999.90;;
2762;SDS011;1389;51.490;7.338;2024-03-08T04:26:48;1999.90;;;999.90;;
2762;SDS011;1389;51.490;7.338;2024-03-08T04:29:14;1999.90;;;999.90;;
2762;SDS011;1389;51.490;7.338;2024-03-08T04:31:41;1999.90;;;999.90;;
2762;SDS011;1389;51.490;7.338;2024-03-08T04:34:07;1999.90;;;999.90;;
2762;SDS011;1389;51.490;7.338;2024-03-08T04:36:34;1999.90;;;999.90;;
2762;SDS011;1389;51.490;7.338;2024-03-08T04:39:00;1999.90;;;999.90;;
2762;SDS011;1389;51.490;7.338;2024-03-08T04:41:26;1999.90;;;999.90;;
2762;SDS011;1389;51.490;7.338;2024-03-08T04:43:53;1999.90;;;999.90;;
2762;SDS011;1389;51.490;7.338;2024-03-08T04:46:21;1999.90;;;999.90;;
2762;SDS011;1389;51.490;7.338;2024-03-08T04:48:47;1999.90;;;999.90;;
2762;SDS011;1389;51.490;7.338;2024-03-08T04:51:13;1999.90;;;999.90;;
2762;SDS011;1389;51.490;7.338;2024-03-08T04:53:41;1999.90;;;999.90;;
2762;SDS011;1389;51.490;7.338;2024-03-08T04:56:07;1999.90;;;999.90;;
2762;SDS011;1389;51.490;7.338;2024-03-08T04:58:37;1999.90;;;999.90;;
2762;SDS011;1389;51.490;7.338;2024-03-08T05:01:03;1999.90;;;999.90;;
2762;SDS011;1389;51.490;7.338;2024-03-08T05:03:30;1999.90;;;999.90;;
2762;SDS011;1389;51.490;7.338;2024-03-08T05:05:56;1999.90;;;999.90;;
2762;SDS011;1389;51.490;7.338;2024-03-08T05:08:22;1999.90;;;999.90;;
2762;SDS011;1389;51.490;7.338;2024-03-08T05:10:49;1999.90;;;999.90;;
2762;SDS011;1389;51.490;7.338;2024-03-08T05:13:15;1999.90;;;999.90;;
2762;SDS011;1389;51.490;7.338;2024-03-08T05:15:41;1999.90;;;999.90;;
2762;SDS011;1389;51.490;7.338;2024-03-08T05:18:08;1999.90;;;999.90;;
2762;SDS011;1389;51.490;7.338;2024-03-08T05:20:36;1999.90;;;999.90;;
2762;SDS011;1389;51.490;7.338;2024-03-08T05:23:03;1999.90;;;999.90;;
2762;SDS011;1389;51.490;7.338;2024-03-08T05:25:30;1999.90;;;999.90;;
2762;SDS011;1389;51.490;7.338;2024-03-08T05:27:57;1999.90;;;999.90;;
2762;SDS011;1389;51.490;7.338;2024-03-08T05:30:24;1999.90;;;999.90;;
2762;SDS011;1389;51.490;7.338;2024-03-08T05:32:50;1999.90;;;999.90;;
2762;SDS011;1389;51.490;7.338;2024-03-08T05:35:17;1999.90;;;999.90;;
2762;SDS011;1389;51.490;7.338;2024-03-08T05:37:43;1999.90;;;999.90;;
2762;SDS011;1389;51.490;7.338;2024-03-08T05:40:10;1999.90;;;999.90;;
2762;SDS011;1389;51.490;7.338;2024-03-08T05:42:36;1999.90;;;999.90;;
2762;SDS011;1389;51.490;7.338;2024-03-08T05:45:03;1999.90;;;999.90;;
2762;SDS011;1389;51.490;7.338;2024-03-08T05:47:31;1999.90;;;999.90;;
2762;SDS011;1389;51.490;7.338;2024-03-08T05:49:58;1999.90;;;999.90;;
2762;SDS011;1389;51.490;7.338;2024-03-08T05:52:25;1999.90;;;999.90;;
2762;SDS011;1389;51.490;7.338;2024-03-08T05:54:51;1999.90;;;999.90;;
2762;SDS011;1389;51.490;7.338;2024-03-08T05:57:18;1999.90;;;999.90;;
2762;SDS011;1389;51.490;7.338;2024-03-08T05:59:44;1999.90;;;999.90;;
2762;SDS011;1389;51.490;7.338;2024-03-08T06:02:11;1999.90;;;999.90;;
2762;SDS011;1389;51.490;7.338;2024-03-08T06:04:37;1999.90;;;999.90;;
2762;SDS011;1389;51.490;7.338;2024-03-08T06:07:03;1999.90;;;999.90;;
2762;SDS011;1389;51.490;7.338;2024-03-08T06:09:30;1999.90;;;999.90;;
2762;SDS011;1389;51.490;7.338;2024-03-08T06:11:56;1999.90;;;999.90;;
2762;SDS011;1389;51.490;7.338;2024-03-08T06:14:23;1999.90;;;999.90;;
2762;SDS011;1389;51.490;7.338;2024-03-08T06:16:49;1999.90;;;999.90;;
2762;SDS011;1389;51.490;7.338;2024-03-08T06:19:15;1999.90;;;999.90;;
2762;SDS011;1389;51.490;7.338;2024-03-08T06:21:42;1999.90;;;999.90;;
2762;SDS011;1389;51.490;7.338;2024-03-08T06:24:08;1999.90;;;999.90;;
2762;SDS011;1389;51.490;7.338;2024-03-08T06:26:35;1999.90;;;999.90;;
2762;SDS011;1389;51.490;7.338;2024-03-08T06:29:03;1999.90;;;999.90;;
2762;SDS011;1389;51.490;7.338;2024-03-08T06:31:32;1999.90;;;999.90;;
2762;SDS011;1389;51.490;7.338;2024-03-08T06:33:58;1999.90;;;999.90;;
2762;SDS011;1389;51.490;7.338;2024-03-08T06:36:25;1999.90;;;999.90;;
2762;SDS011;1389;51.490;7.338;2024-03-08T06:38:51;1999.90;;;999.90;;
2762;SDS011;1389;51.490;7.338;2024-03-08T06:41:18;1999.90;;;999.90;;
2762;SDS011;1389;51.490;7.338;2024-03-08T06:43:44;1999.90;;;999.90;;
2762;SDS011;1389;51.490;7.338;2024-03-08T06:46:12;1999.90;;;999.90;;
2762;SDS011;1389;51.490;7.338;2024-03-08T06:48:38;1999.90;;;999.90;;
2762;SDS011;1389;51.490;7.338;2024-03-08T06:51:05;1999.90;;;999.90;;
2762;SDS011;1389;51.490;7.338;2024-03-08T06:53:31;1999.90;;;999.90;;
2762;SDS011;1389;51.490;7.338;2024-03-08T06:55:58;1999.90;;;999.90;;
2762;SDS011;1389;51.490;7.338;2024-03-08T06:58:24;1999.90;;;999.90;;
2762;SDS011;1389;51.490;7.338;2024-03-08T07:00:51;1999.90;;;999.90;;
2762;SDS011;1389;51.490;7.338;2024-03-08T07:03:17;1999.90;;;999.90;;
2762;SDS011;1389;51.490;7.338;2024-03-08T07:05:44;1999.90;;;999.90;;
2762;SDS011;1389;51.490;7.338;2024-03-08T07:08:10;1999.90;;;999.90;;
2762;SDS011;1389;51.490;7.338;2024-03-08T07:10:41;1999.90;;;999.90;;
2762;SDS011;1389;51.490;7.338;2024-03-08T07:13:07;1999.90;;;999.90;;
2762;SDS011;1389;51.490;7.338;2024-03-08T07:15:34;1999.90;;;999.90;;
2762;SDS011;1389;51.490;7.338;2024-03-08T07:18:01;1999.90;;;999.90;;
2762;SDS011;1389;51.490;7.338;2024-03-08T07:20:27;1999.90;;;999.90;;
2762;SDS011;1389;51.490;7.338;2024-03-08T07:22:54;1999.90;;;999.90;;
2762;SDS011;1389;51.490;7.338;2024-03-08T07:25:20;1999.90;;;999.90;;
2762;SDS011;1389;51.490;7.338;2024-03-08T07:27:53;1999.90;;;999.90;;
2762;SDS011;1389;51.490;7.338;2024-03-08T07:30:21;1999.90;;;999.90;;
2762;SDS011;1389;51.490;7.338;2024-03-08T07:33:19;1999.90;;;999.90;;
2762;SDS011;1389;51.490;7.338;2024-03-08T07:35:47;1999.90;;;999.90;;
2762;SDS011;1389;51.490;7.338;2024-03-08T07:38:15;1999.90;;;999.90;;
2762;SDS011;1389;51.490;7.338;2024-03-08T07:40:42;1999.90;;;999.90;;
2762;SDS011;1389;51.490;7.338;2024-03-08T07:43:12;1999.90;;;999.90;;
2762;SDS011;1389;51.490;7.338;2024-03-08T07:45:38;1999.90;;;999.90;;
2762;SDS011;1389;51.490;7.338;2024-03-08T07:48:05;1999.90;;;999.90;;
2762;SDS011;1389;51.490;7.338;2024-03-08T07:50:41;1999.90;;;999.90;;
2762;SDS011;1389;51.490;7.338;2024-03-08T07:53:07;1999.90;;;999.90;;
2762;SDS011;1389;51.490;7.338;2024-03-08T07:55:34;1999.90;;;999.90;;
2762;SDS011;1389;51.490;7.338;2024-03-08T07:58:02;1999.90;;;999.90;;
2762;SDS011;1389;51.490;7.338;2024-03-08T08:00:28;1999.90;;;999.90;;
2762;SDS011;1389;51.490;7.338;2024-03-08T08:02:56;1999.90;;;999.90;;
2762;SDS011;1389;51.490;7.338;2024-03-08T08:05:23;1999.90;;;999.90;;
2762;SDS011;1389;51.490;7.338;2024-03-08T08:07:49;1999.90;;;999.90;;
2762;SDS011;1389;51.490;7.338;2024-03-08T08:10:17;1999.90;;;999.90;;
2762;SDS011;1389;51.490;7.338;2024-03-08T08:12:47;1999.90;;;999.90;;
2762;SDS011;1389;51.490;7.338;2024-03-08T08:15:13;1999.90;;;999.90;;
2762;SDS011;1389;51.490;7.338;2024-03-08T08:17:43;1999.90;;;999.90;;
2762;SDS011;1389;51.490;7.338;2024-03-08T08:20:10;1999.90;;;999.90;;
2762;SDS011;1389;51.490;7.338;2024-03-08T08:22:39;1999.90;;;999.90;;
2762;SDS011;1389;51.490;7.338;2024-03-08T08:25:06;1999.90;;;999.90;;
2762;SDS011;1389;51.490;7.338;2024-03-08T08:27:32;1999.90;;;999.90;;
2762;SDS011;1389;51.490;7.338;2024-03-08T08:29:59;1999.90;;;999.90;;
2762;SDS011;1389;51.490;7.338;2024-03-08T08:32:26;1999.90;;;999.90;;
2762;SDS011;1389;51.490;7.338;2024-03-08T08:34:52;1999.90;;;999.90;;
2762;SDS011;1389;51.490;7.338;2024-03-08T08:37:18;1999.90;;;999.90;;
2762;SDS011;1389;51.490;7.338;2024-03-08T08:39:45;1999.90;;;999.90;;
2762;SDS011;1389;51.490;7.338;2024-03-08T08:42:11;1999.90;;;999.90;;
2762;SDS011;1389;51.490;7.338;2024-03-08T08:44:38;1999.90;;;999.90;;
2762;SDS011;1389;51.490;7.338;2024-03-08T08:47:04;1999.90;;;999.90;;
2762;SDS011;1389;51.490;7.338;2024-03-08T08:49:31;1999.90;;;999.90;;
2762;SDS011;1389;51.490;7.338;2024-03-08T08:51:57;1999.90;;;999.90;;
2762;SDS011;1389;51.490;7.338;2024-03-08T08:54:24;1999.90;;;999.90;;
2762;SDS011;1389;51.490;7.338;2024-03-08T08:56:50;1999.90;;;999.90;;
2762;SDS011;1389;51.490;7.338;2024-03-08T08:59:17;1999.90;;;999.90;;
2762;SDS011;1389;51.490;7.338;2024-03-08T09:01:47;1999.90;;;999.90;;
2762;SDS011;1389;51.490;7.338;2024-03-08T09:04:15;1999.90;;;999.90;;
2762;SDS011;1389;51.490;7.338;2024-03-08T09:06:42;1999.90;;;999.90;;
2762;SDS011;1389;51.490;7.338;2024-03-08T09:09:09;1999.90;;;999.90;;
2762;SDS011;1389;51.490;7.338;2024-03-08T09:11:36;1999.90;;;999.90;;
2762;SDS011;1389;51.490;7.338;2024-03-08T09:14:07;1999.90;;;999.90;;
2762;SDS011;1389;51.490;7.338;2024-03-08T09:16:34;1999.90;;;999.90;;
2762;SDS011;1389;51.490;7.338;2024-03-08T09:19:02;1999.90;;;999.90;;
2762;SDS011;1389;51.490;7.338;2024-03-08T09:21:28;1999.90;;;999.90;;
2762;SDS011;1389;51.490;7.338;2024-03-08T09:23:56;1999.90;;;999.90;;
2762;SDS011;1389;51.490;7.338;2024-03-08T09:26:24;1999.90;;;999.90;;
2762;SDS011;1389;51.490;7.338;2024-03-08T09:28:50;1999.90;;;999.90;;
2762;SDS011;1389;51.490;7.338;2024-03-08T09:31:16;1999.90;;;999.90;;
2762;SDS011;1389;51.490;7.338;2024-03-08T09:33:43;1999.90;;;999.90;;
2762;SDS011;1389;51.490;7.338;2024-03-08T09:36:09;1999.90;;;999.90;;
2762;SDS011;1389;51.490;7.338;2024-03-08T09:38:36;1999.90;;;999.90;;
2762;SDS011;1389;51.490;7.338;2024-03-08T09:41:02;1999.90;;;999.90;;
2762;SDS011;1389;51.490;7.338;2024-03-08T09:43:29;1999.90;;;999.90;;
2762;SDS011;1389;51.490;7.338;2024-03-08T09:45:56;1999.90;;;999.90;;
2762;SDS011;1389;51.490;7.338;2024-03-08T09:48:23;1999.90;;;999.90;;
2762;SDS011;1389;51.490;7.338;2024-03-08T09:50:50;1999.90;;;999.90;;
2762;SDS011;1389;51.490;7.338;2024-03-08T09:53:16;1999.90;;;999.90;;
2762;SDS011;1389;51.490;7.338;2024-03-08T09:55:43;1999.90;;;999.90;;
2762;SDS011;1389;51.490;7.338;2024-03-08T09:58:15;1999.90;;;999.90;;
2762;SDS011;1389;51.490;7.338;2024-03-08T10:00:52;1999.90;;;999.90;;
2762;SDS011;1389;51.490;7.338;2024-03-08T10:03:21;1999.90;;;999.90;;
2762;SDS011;1389;51.490;7.338;2024-03-08T10:05:48;1999.90;;;999.90;;
2762;SDS011;1389;51.490;7.338;2024-03-08T10:08:14;1999.90;;;999.90;;
2762;SDS011;1389;51.490;7.338;2024-03-08T10:10:40;1999.90;;;999.90;;
2762;SDS011;1389;51.490;7.338;2024-03-08T10:13:08;1999.90;;;999.90;;
2762;SDS011;1389;51.490;7.338;2024-03-08T10:15:36;1999.90;;;999.90;;
2762;SDS011;1389;51.490;7.338;2024-03-08T10:18:03;1999.90;;;999.90;;
2762;SDS011;1389;51.490;7.338;2024-03-08T10:20:30;1999.90;;;999.90;;
2762;SDS011;1389;51.490;7.338;2024-03-08T10:23:00;1999.90;;;999.90;;
2762;SDS011;1389;51.490;7.338;2024-03-08T10:25:29;1999.90;;;999.90;;
2762;SDS011;1389;51.490;7.338;2024-03-08T10:27:56;1999.90;;;999.90;;
2762;SDS011;1389;51.490;7.338;2024-03-08T10:30:22;1999.90;;;999.90;;
2762;SDS011;1389;51.490;7.338;2024-03-08T10:32:49;1999.90;;;999.90;;
2762;SDS011;1389;51.490;7.338;2024-03-08T10:35:17;1999.90;;;999.90;;
2762;SDS011;1389;51.490;7.338;2024-03-08T10:37:52;1999.90;;;999.90;;
2762;SDS011;1389;51.490;7.338;2024-03-08T10:40:24;1999.90;;;999.90;;
2762;SDS011;1389;51.490;7.338;2024-03-08T10:42:55;1999.90;;;999.90;;
2762;SDS011;1389;51.490;7.338;2024-03-08T10:45:31;1999.90;;;999.90;;
2762;SDS011;1389;51.490;7.338;2024-03-08T10:48:25;1317.93;;;999.90;;
2762;SDS011;1389;51.490;7.338;2024-03-08T10:50:47;1999.90;;;999.90;;
2762;SDS011;1389;51.490;7.338;2024-03-08T10:53:18;1999.90;;;999.90;;
2762;SDS011;1389;51.490;7.338;2024-03-08T10:55:46;1999.90;;;999.90;;
2762;SDS011;1389;51.490;7.338;2024-03-08T10:58:13;1999.90;;;999.90;;
2762;SDS011;1389;51.490;7.338;2024-03-08T11:00:41;1655.00;;;897.60;;
2762;SDS011;1389;51.490;7.338;2024-03-08T11:03:09;1348.10;;;999.90;;
2762;SDS011;1389;51.490;7.338;2024-03-08T11:05:54;1729.55;;;968.60;;
2762;SDS011;1389;51.490;7.338;2024-03-08T11:08:20;1999.90;;;999.90;;
2762;SDS011;1389;51.490;7.338;2024-03-08T11:10:51;1999.90;;;999.90;;
2762;SDS011;1389;51.490;7.338;2024-03-08T11:13:33;1999.90;;;999.90;;
2762;SDS011;1389;51.490;7.338;2024-03-08T11:16:02;1191.70;;;908.72;;
2762;SDS011;1389;51.490;7.338;2024-03-08T11:18:35;1999.90;;;999.90;;
2762;SDS011;1389;51.490;7.338;2024-03-08T11:21:03;1083.75;;;805.90;;
2762;SDS011;1389;51.490;7.338;2024-03-08T11:23:32;1999.90;;;999.90;;
2762;SDS011;1389;51.490;7.338;2024-03-08T11:25:59;1206.18;;;922.50;;
2762;SDS011;1389;51.490;7.338;2024-03-08T11:28:25;1999.90;;;999.90;;
2762;SDS011;1389;51.490;7.338;2024-03-08T11:33:28;1999.90;;;999.90;;
2762;SDS011;1389;51.490;7.338;2024-03-08T11:36:13;1999.90;;;999.90;;
2762;SDS011;1389;51.490;7.338;2024-03-08T11:38:44;1474.23;;;799.00;;
2762;SDS011;1389;51.490;7.338;2024-03-08T11:41:14;1701.70;;;942.08;;
2762;SDS011;1389;51.490;7.338;2024-03-08T11:43:41;1999.90;;;999.90;;
2762;SDS011;1389;51.490;7.338;2024-03-08T11:46:08;1999.90;;;999.90;;
2762;SDS011;1389;51.490;7.338;2024-03-08T11:48:34;1999.90;;;999.90;;
2762;SDS011;1389;51.490;7.338;2024-03-08T11:51:04;1999.90;;;999.90;;
2762;SDS011;1389;51.490;7.338;2024-03-08T11:53:31;1999.90;;;999.90;;
2762;SDS011;1389;51.490;7.338;2024-03-08T11:56:07;1999.90;;;999.90;;
2762;SDS011;1389;51.490;7.338;2024-03-08T11:58:34;1999.90;;;999.90;;
2762;SDS011;1389;51.490;7.338;2024-03-08T12:01:07;1999.90;;;999.90;;
2762;SDS011;1389;51.490;7.338;2024-03-08T12:03:42;1999.90;;;999.90;;
2762;SDS011;1389;51.490;7.338;2024-03-08T12:06:10;1999.90;;;999.90;;
2762;SDS011;1389;51.490;7.338;2024-03-08T12:08:38;1999.90;;;999.90;;
2762;SDS011;1389;51.490;7.338;2024-03-08T12:11:05;312.88;;;125.20;;
2762;SDS011;1389;51.490;7.338;2024-03-08T12:13:32;726.65;;;328.75;;
2762;SDS011;1389;51.490;7.338;2024-03-08T12:15:59;276.05;;;63.30;;
2762;SDS011;1389;51.490;7.338;2024-03-08T12:18:26;280.65;;;75.88;;
2762;SDS011;1389;51.490;7.338;2024-03-08T12:23:40;264.45;;;56.67;;
2762;SDS011;1389;51.490;7.338;2024-03-08T12:26:14;275.38;;;76.35;;
2762;SDS011;1389;51.490;7.338;2024-03-08T12:28:41;292.30;;;106.57;;
2762;SDS011;1389;51.490;7.338;2024-03-08T12:31:13;260.75;;;53.83;;
2762;SDS011;1389;51.490;7.338;2024-03-08T12:33:52;292.67;;;107.32;;
2762;SDS011;1389;51.490;7.338;2024-03-08T12:36:20;258.98;;;51.88;;
2762;SDS011;1389;51.490;7.338;2024-03-08T12:38:46;271.92;;;70.13;;
2762;SDS011;1389;51.490;7.338;2024-03-08T12:41:14;265.30;;;60.38;;
2762;SDS011;1389;51.490;7.338;2024-03-08T12:43:41;253.90;;;46.20;;
2762;SDS011;1389;51.490;7.338;2024-03-08T12:46:07;250.07;;;42.10;;
2762;SDS011;1389;51.490;7.338;2024-03-08T12:48:34;246.93;;;37.92;;
2762;SDS011;1389;51.490;7.338;2024-03-08T12:51:02;1572.78;;;776.63;;
2762;SDS011;1389;51.490;7.338;2024-03-08T12:53:28;1999.90;;;999.90;;
2762;SDS011;1389;51.490;7.338;2024-03-08T12:55:55;1999.90;;;999.90;;
2762;SDS011;1389;51.490;7.338;2024-03-08T12:58:22;1999.90;;;999.90;;
2762;SDS011;1389;51.490;7.338;2024-03-08T13:00:48;1999.90;;;999.90;;
2762;SDS011;1389;51.490;7.338;2024-03-08T13:03:15;1999.90;;;999.90;;
2762;SDS011;1389;51.490;7.338;2024-03-08T13:05:42;1999.90;;;999.90;;
2762;SDS011;1389;51.490;7.338;2024-03-08T13:08:08;1999.90;;;999.90;;
2762;SDS011;1389;51.490;7.338;2024-03-08T13:10:39;1999.90;;;999.90;;
2762;SDS011;1389;51.490;7.338;2024-03-08T13:13:05;1999.90;;;999.90;;
2762;SDS011;1389;51.490;7.338;2024-03-08T13:15:32;1999.90;;;999.90;;
2762;SDS011;1389;51.490;7.338;2024-03-08T13:17:59;1999.90;;;999.90;;
2762;SDS011;1389;51.490;7.338;2024-03-08T13:20:25;1999.90;;;999.90;;
2762;SDS011;1389;51.490;7.338;2024-03-08T13:22:53;1999.90;;;999.90;;
2762;SDS011;1389;51.490;7.338;2024-03-08T13:25:21;1999.90;;;999.90;;
2762;SDS011;1389;51.490;7.338;2024-03-08T13:27:47;1999.90;;;999.90;;
2762;SDS011;1389;51.490;7.338;2024-03-08T13:30:14;1999.90;;;999.90;;
2762;SDS011;1389;51.490;7.338;2024-03-08T13:32:44;1999.90;;;999.90;;
2762;SDS011;1389;51.490;7.338;2024-03-08T13:35:11;1999.90;;;999.90;;
2762;SDS011;1389;51.490;7.338;2024-03-08T13:37:41;1999.90;;;999.90;;
2762;SDS011;1389;51.490;7.338;2024-03-08T13:40:08;1999.90;;;999.90;;
2762;SDS011;1389;51.490;7.338;2024-03-08T13:42:44;1999.90;;;999.90;;
2762;SDS011;1389;51.490;7.338;2024-03-08T13:45:11;1999.90;;;999.90;;
2762;SDS011;1389;51.490;7.338;2024-03-08T13:47:38;1999.90;;;999.90;;
2762;SDS011;1389;51.490;7.338;2024-03-08T13:50:07;1999.90;;;999.90;;
2762;SDS011;1389;51.490;7.338;2024-03-08T13:52:40;1999.90;;;999.90;;
2762;SDS011;1389;51.490;7.338;2024-03-08T13:55:06;1999.90;;;999.90;;
2762;SDS011;1389;51.490;7.338;2024-03-08T13:57:33;1999.90;;;999.90;;
2762;SDS011;1389;51.490;7.338;2024-03-08T14:00:01;1999.90;;;999.90;;
2762;SDS011;1389;51.490;7.338;2024-03-08T14:02:27;1999.90;;;999.90;;
2762;SDS011;1389;51.490;7.338;2024-03-08T14:04:55;1999.90;;;999.90;;
2762;SDS011;1389;51.490;7.338;2024-03-08T14:07:22;1999.90;;;999.90;;
2762;SDS011;1389;51.490;7.338;2024-03-08T14:09:49;1999.90;;;999.90;;
2762;SDS011;1389;51.490;7.338;2024-03-08T14:12:18;1999.90;;;999.90;;
2762;SDS011;1389;51.490;7.338;2024-03-08T14:14:45;1999.90;;;999.90;;
2762;SDS011;1389;51.490;7.338;2024-03-08T14:17:11;1999.90;;;999.90;;
2762;SDS011;1389;51.490;7.338;2024-03-08T14:19:43;1999.90;;;999.90;;